createdAt,value
2019-02-11T00:00:47.470Z,98575.36
2019-02-11T00:03:27.357Z,98599.22
2019-02-11T00:06:01.612Z,98603.89
2019-02-11T00:08:33.878Z,98611.98
2019-02-11T00:11:07.450Z,98625.25
2019-02-11T00:13:39.313Z,98632.09
2019-02-11T00:16:11.764Z,98634.63
2019-02-11T00:18:44.186Z,98642.16
2019-02-11T00:21:17.274Z,98653.80
2019-02-11T00:23:52.285Z,98664.76
2019-02-11T00:26:24.419Z,98646.55
2019-02-11T00:28:56.799Z,98667.22
2019-02-11T00:31:29.688Z,98666.80
2019-02-11T00:34:03.448Z,98664.97
2019-02-11T00:36:38.833Z,98676.92
2019-02-11T00:39:10.990Z,98681.42
2019-02-11T00:41:41.877Z,98682.76
2019-02-11T00:44:15.849Z,98679.00
2019-02-11T00:46:48.007Z,98681.29
2019-02-11T00:49:19.827Z,98690.30
2019-02-11T00:51:51.678Z,98683.40
2019-02-11T00:54:23.795Z,98718.67
2019-02-11T00:56:59.993Z,98720.06
2019-02-11T00:59:32.251Z,98721.55
2019-02-11T01:02:10.185Z,98729.44
2019-02-11T01:04:43.341Z,98743.26
2019-02-11T01:07:14.771Z,98751.56
2019-02-11T01:09:47.083Z,98745.11
2019-02-11T01:12:19.305Z,98765.92
2019-02-11T01:14:50.841Z,98770.23
2019-02-11T01:17:24.538Z,98775.22
2019-02-11T01:19:56.357Z,98775.22
2019-02-11T01:22:28.703Z,98784.89
2019-02-11T01:25:02.156Z,98797.20
2019-02-11T01:27:33.972Z,98798.83
2019-02-11T01:30:14.231Z,98815.42
2019-02-11T01:32:48.470Z,98826.20
2019-02-11T01:35:20.291Z,98813.77
2019-02-11T01:37:55.284Z,98828.23
2019-02-11T01:40:33.088Z,98841.63
2019-02-11T01:43:04.997Z,98844.63
2019-02-11T01:45:37.371Z,98853.62
2019-02-11T01:48:10.160Z,98851.41
2019-02-11T01:50:42.462Z,98860.82
2019-02-11T01:53:14.583Z,98859.72
2019-02-11T01:55:47.688Z,98865.30
2019-02-11T01:58:19.846Z,98875.36
2019-02-11T02:00:53.198Z,98879.34
2019-02-11T02:03:24.687Z,98873.11
2019-02-11T02:05:56.724Z,98886.52
2019-02-11T02:08:30.875Z,98879.33
2019-02-11T02:11:03.416Z,98876.00
2019-02-11T02:14:00.617Z,98902.19
2019-02-11T02:16:32.412Z,98899.81
2019-02-11T02:19:04.311Z,98897.58
2019-02-11T02:21:36.431Z,98913.80
2019-02-11T02:24:08.595Z,98907.70
2019-02-11T02:26:40.539Z,98912.59
2019-02-11T02:29:12.545Z,98924.05
2019-02-11T02:31:45.943Z,98923.37
2019-02-11T02:34:17.486Z,98923.48
2019-02-11T02:36:48.536Z,98932.98
2019-02-11T02:39:23.034Z,98937.41
2019-02-11T02:41:54.934Z,98941.37
2019-02-11T02:44:27.071Z,98949.34
2019-02-11T02:46:59.315Z,98949.35
2019-02-11T02:49:36.987Z,98951.39
2019-02-11T02:52:10.723Z,98956.55
2019-02-11T02:54:41.843Z,98966.47
2019-02-11T02:57:15.572Z,98968.78
2019-02-11T02:59:47.477Z,98978.55
2019-02-11T03:02:19.810Z,98971.70
2019-02-11T03:04:51.621Z,98987.22
2019-02-11T03:07:23.645Z,98990.21
2019-02-11T03:09:54.705Z,98993.84
2019-02-11T03:12:26.673Z,99000.59
2019-02-11T03:14:57.824Z,99017.70
2019-02-11T03:17:29.631Z,99012.67
2019-02-11T03:20:02.022Z,99018.20
2019-02-11T03:22:34.349Z,99030.48
2019-02-11T03:25:06.322Z,99035.89
2019-02-11T03:27:37.528Z,99039.34
2019-02-11T03:30:08.704Z,99039.44
2019-02-11T03:32:40.538Z,99045.44
2019-02-11T03:35:11.528Z,99051.58
2019-02-11T03:37:42.418Z,99061.67
2019-02-11T03:40:16.040Z,99058.47
2019-02-11T03:42:47.847Z,99065.16
2019-02-11T03:45:19.271Z,99077.48
2019-02-11T03:47:51.719Z,99092.59
2019-02-11T03:50:23.275Z,99100.02
2019-02-11T03:52:55.388Z,99100.80
2019-02-11T03:55:30.503Z,99110.80
2019-02-11T03:58:03.409Z,99105.30
2019-02-11T04:00:39.882Z,99112.46
2019-02-11T04:03:12.145Z,99118.11
2019-02-11T04:05:44.446Z,99107.83
2019-02-11T04:08:16.436Z,99121.08
2019-02-11T04:10:48.717Z,99133.52
2019-02-11T04:13:21.503Z,99145.97
2019-02-11T04:15:59.051Z,99156.02
2019-02-11T04:18:37.968Z,99166.19
2019-02-11T04:21:10.436Z,99174.66
2019-02-11T04:23:44.489Z,99181.14
2019-02-11T04:26:15.821Z,99192.26
2019-02-11T04:28:51.458Z,99185.62
2019-02-11T04:31:24.353Z,99187.16
2019-02-11T04:33:58.316Z,99201.27
2019-02-11T04:36:29.479Z,99195.91
2019-02-11T04:39:01.048Z,99204.67
2019-02-11T04:41:32.381Z,99204.37
2019-02-11T04:44:03.588Z,99202.85
2019-02-11T04:46:36.291Z,99215.45
2019-02-11T04:49:07.520Z,99218.26
2019-02-11T04:51:40.774Z,99220.73
2019-02-11T04:54:18.300Z,99219.13
2019-02-11T04:56:55.261Z,99223.58
2019-02-11T04:59:35.409Z,99237.08
2019-02-11T05:02:07.680Z,99232.72
2019-02-11T05:04:42.182Z,99242.02
2019-02-11T05:07:13.302Z,99241.61
2019-02-11T05:09:44.365Z,99242.14
2019-02-11T05:12:16.287Z,99243.54
2019-02-11T05:14:48.671Z,99249.92
2019-02-11T05:17:19.666Z,99253.98
2019-02-11T05:19:50.686Z,99261.92
2019-02-11T05:22:21.830Z,99263.96
2019-02-11T05:24:53.367Z,99259.95
2019-02-11T05:27:24.786Z,99268.29
2019-02-11T05:29:56.717Z,99274.94
2019-02-11T05:32:28.685Z,99275.40
2019-02-11T05:35:02.139Z,99288.50
2019-02-11T05:37:39.978Z,99286.34
2019-02-11T05:40:14.223Z,99282.16
2019-02-11T05:42:56.153Z,99284.83
2019-02-11T05:45:27.816Z,99275.37
2019-02-11T05:48:00.055Z,99293.11
2019-02-11T05:50:31.960Z,99297.50
2019-02-11T05:53:07.231Z,99300.95
2019-02-11T05:55:38.381Z,99308.31
2019-02-11T05:58:10.976Z,99307.80
2019-02-11T06:00:52.577Z,99304.97
2019-02-11T06:03:26.718Z,99316.77
2019-02-11T06:05:58.738Z,99296.67
2019-02-11T06:08:31.769Z,99336.03
2019-02-11T06:11:03.620Z,99315.58
2019-02-11T06:13:34.798Z,99318.77
2019-02-11T06:16:25.165Z,99329.06
2019-02-11T06:18:59.966Z,99330.06
2019-02-11T06:21:38.306Z,99331.37
2019-02-11T06:24:12.531Z,99346.00
2019-02-11T06:26:51.309Z,99349.14
2019-02-11T06:29:41.092Z,99353.81
2019-02-11T06:32:21.007Z,99352.97
2019-02-11T06:34:53.990Z,99356.62
2019-02-11T06:37:28.635Z,99378.70
2019-02-11T06:40:06.159Z,99375.22
2019-02-11T06:42:37.830Z,99377.89
2019-02-11T06:48:02.446Z,99395.45
2019-02-11T06:50:38.052Z,99396.48
2019-02-11T06:53:15.014Z,99391.83
2019-02-11T06:55:50.039Z,99406.95
2019-02-11T06:58:27.003Z,99407.11
2019-02-11T07:01:39.427Z,99422.69
2019-02-11T07:04:15.129Z,99444.30
2019-02-11T07:06:48.359Z,99438.81
2019-02-11T07:09:51.539Z,99445.47
2019-02-11T07:12:54.960Z,99445.63
2019-02-11T07:16:38.422Z,99452.95
2019-02-11T07:19:21.974Z,99456.61
2019-02-11T07:22:23.550Z,99473.70
2019-02-11T07:28:20.825Z,99493.77
2019-02-11T07:34:38.696Z,99505.70
2019-02-11T07:37:21.225Z,99509.31
2019-02-11T07:39:59.232Z,99514.14
2019-02-11T07:42:49.617Z,99537.61
2019-02-11T07:45:40.531Z,99554.27
2019-02-11T07:48:12.097Z,99554.92
2019-02-11T07:50:46.394Z,99565.75
2019-02-11T07:53:29.130Z,99584.31
2019-02-11T07:56:08.688Z,99584.52
2019-02-11T07:58:48.321Z,99582.40
2019-02-11T08:01:26.023Z,99586.58
2019-02-11T08:04:00.671Z,99600.91
2019-02-11T08:06:34.930Z,99600.89
2019-02-11T08:09:14.868Z,99610.18
2019-02-11T08:11:59.235Z,99615.45
2019-02-11T08:14:36.087Z,99617.91
2019-02-11T08:17:12.125Z,99625.25
2019-02-11T08:19:46.116Z,99642.16
2019-02-11T08:22:24.715Z,99641.42
2019-02-11T08:25:06.077Z,99651.71
2019-02-11T08:27:48.079Z,99667.05
2019-02-11T08:30:46.190Z,99667.05
2019-02-11T08:33:26.052Z,99661.38
2019-02-11T08:36:09.777Z,99685.38
2019-02-11T08:38:42.065Z,99679.66
2019-02-11T08:41:22.054Z,99689.98
2019-02-11T08:47:21.366Z,99701.33
2019-02-11T08:49:59.004Z,99696.58
2019-02-11T08:52:31.330Z,99706.66
2019-02-11T08:55:13.857Z,99715.98
2019-02-11T08:57:54.392Z,99700.34
2019-02-11T09:00:46.978Z,99713.14
2019-02-11T09:03:27.433Z,99724.98
2019-02-11T09:05:59.570Z,99723.31
2019-02-11T09:08:32.507Z,99727.31
2019-02-11T09:11:10.914Z,99738.45
2019-02-11T09:13:44.738Z,99756.92
2019-02-11T09:16:21.013Z,99754.15
2019-02-11T09:19:01.485Z,99760.62
2019-02-11T09:21:34.485Z,99769.64
2019-02-11T09:24:06.591Z,99771.20
2019-02-11T09:26:50.525Z,99784.62
2019-02-11T09:29:30.195Z,99789.05
2019-02-11T09:32:09.255Z,99797.72
2019-02-11T09:34:47.052Z,99793.47
2019-02-11T09:37:22.493Z,99803.17
2019-02-11T09:40:08.190Z,99814.47
2019-02-11T09:42:43.223Z,99814.09
2019-02-11T09:45:34.858Z,99814.09
2019-02-11T09:48:12.935Z,99817.30
2019-02-11T09:51:04.973Z,99813.56
2019-02-11T09:54:10.096Z,99825.00
2019-02-11T09:56:51.451Z,99828.55
2019-02-11T09:59:52.946Z,99836.71
2019-02-11T10:02:36.574Z,99841.45
2019-02-11T10:05:08.583Z,99841.08
2019-02-11T10:07:55.640Z,99842.82
2019-02-11T10:10:31.229Z,99849.97
2019-02-11T10:13:05.514Z,99854.58
2019-02-11T10:15:48.515Z,99863.17
2019-02-11T10:18:19.934Z,99861.63
2019-02-11T10:21:04.792Z,99884.23
2019-02-11T10:23:52.744Z,99878.95
2019-02-11T10:26:30.828Z,99880.53
2019-02-11T10:29:19.670Z,99886.59
2019-02-11T10:31:55.197Z,99892.63
2019-02-11T10:34:30.040Z,99892.63
2019-02-11T10:37:03.644Z,99909.10
2019-02-11T10:39:41.637Z,99907.81
2019-02-11T10:42:20.229Z,99918.86
2019-02-11T10:45:04.346Z,99942.81
2019-02-11T10:47:39.934Z,99949.09
2019-02-11T10:50:18.568Z,99925.49
2019-02-11T10:52:54.546Z,99945.98
2019-02-11T10:55:34.790Z,99953.30
2019-02-11T10:58:11.301Z,99945.48
2019-02-11T11:00:57.245Z,99942.91
2019-02-11T11:03:42.950Z,99948.93
2019-02-11T11:06:19.283Z,99936.42
2019-02-11T11:09:04.597Z,99935.79
2019-02-11T11:11:40.329Z,99961.72
2019-02-11T11:14:11.431Z,99948.45
2019-02-11T11:16:47.282Z,99961.62
2019-02-11T11:19:33.471Z,99964.33
2019-02-11T11:25:16.389Z,99954.40
2019-02-11T11:27:55.505Z,99951.08
2019-02-11T11:30:35.136Z,99955.87
2019-02-11T11:33:07.335Z,99957.70
2019-02-11T11:35:46.742Z,99947.98
2019-02-11T11:38:21.117Z,99919.27
2019-02-11T11:40:52.943Z,99945.59
2019-02-11T11:43:28.398Z,99953.58
2019-02-11T11:46:09.395Z,99963.73
2019-02-11T11:48:42.756Z,99944.53
2019-02-11T11:51:18.013Z,99964.22
2019-02-11T11:54:10.733Z,99976.59
2019-02-11T11:56:46.061Z,99991.41
2019-02-11T11:59:23.652Z,99998.10
2019-02-11T12:02:00.960Z,100005.63
2019-02-11T12:04:43.399Z,100016.47
2019-02-11T12:07:19.753Z,100034.06
2019-02-11T12:09:58.013Z,100020.93
2019-02-11T12:12:32.348Z,100029.68
2019-02-11T12:15:09.014Z,100036.81
2019-02-11T12:18:02.393Z,100031.16
2019-02-11T12:20:59.445Z,100052.33
2019-02-11T12:23:33.181Z,100046.25
2019-02-11T12:26:10.918Z,100056.30
2019-02-11T12:28:48.207Z,100055.19
2019-02-11T12:31:38.549Z,100049.58
2019-02-11T12:34:21.189Z,100040.39
2019-02-11T12:37:03.180Z,100046.19
2019-02-11T12:39:47.438Z,100046.90
2019-02-11T12:42:23.411Z,100057.86
2019-02-11T12:45:25.811Z,100051.00
2019-02-11T12:48:03.132Z,100066.02
2019-02-11T12:50:56.247Z,100060.84
2019-02-11T12:53:43.467Z,100049.61
2019-02-11T12:56:25.055Z,100058.91
2019-02-11T12:59:10.364Z,100054.34
2019-02-11T13:01:48.258Z,100055.84
2019-02-11T13:04:27.952Z,100068.75
2019-02-11T13:07:08.989Z,100071.28
2019-02-11T13:09:47.001Z,100081.19
2019-02-11T13:12:29.338Z,100087.50
2019-02-11T13:15:33.753Z,100090.17
2019-02-11T13:17:47.619Z,100061.23
2019-02-11T13:20:21.374Z,100095.61
2019-02-11T13:22:55.805Z,100094.13
2019-02-11T13:25:31.863Z,100101.59
2019-02-11T13:28:14.704Z,100112.92
2019-02-11T13:30:48.892Z,100120.27
2019-02-11T13:33:22.489Z,100144.86
2019-02-11T13:35:57.415Z,100153.88
2019-02-11T13:38:30.511Z,100153.09
2019-02-11T13:41:05.445Z,100156.90
2019-02-11T13:43:40.552Z,100151.35
2019-02-11T13:46:11.600Z,100163.00
2019-02-11T13:48:49.059Z,100147.72
2019-02-11T13:51:20.204Z,100146.86
2019-02-11T13:53:51.266Z,100148.69
2019-02-11T13:56:22.994Z,100162.90
2019-02-11T13:58:56.997Z,100168.67
2019-02-11T14:01:31.267Z,100170.98
2019-02-11T14:04:02.407Z,100159.76
2019-02-11T14:06:54.142Z,100181.41
2019-02-11T14:09:17.134Z,100180.22
2019-02-11T14:14:58.136Z,100191.14
2019-02-11T14:20:42.640Z,100212.36
2019-02-11T14:23:33.823Z,100223.11
2019-02-11T14:29:27.076Z,100228.52
2019-02-11T14:31:59.275Z,100241.20
2019-02-11T14:34:50.356Z,100221.50
2019-02-11T14:37:23.027Z,100250.73
2019-02-11T14:43:10.007Z,100258.41
2019-02-11T14:46:05.218Z,100273.77
2019-02-11T14:49:14.232Z,100279.27
2019-02-11T14:52:24.052Z,100280.95
2019-02-11T14:58:20.475Z,100285.63
2019-02-11T15:01:06.011Z,100289.13
2019-02-11T15:06:44.918Z,100294.31
2019-02-11T15:09:35.071Z,100306.36
2019-02-11T15:15:48.249Z,100308.39
2019-02-11T15:18:37.947Z,100325.58
2019-02-11T15:21:31.992Z,100313.03
2019-02-11T15:28:09.600Z,100350.29
2019-02-11T15:31:00.310Z,100350.02
2019-02-11T15:33:56.714Z,100355.80
2019-02-11T15:36:27.659Z,100366.68
2019-02-11T15:38:58.724Z,100370.55
2019-02-11T15:44:44.436Z,100384.06
2019-02-11T15:50:18.011Z,100364.95
2019-02-11T15:52:49.827Z,100380.55
2019-02-11T15:55:20.783Z,100390.87
2019-02-11T15:57:54.048Z,100397.27
2019-02-11T16:03:39.238Z,100407.13
2019-02-11T16:06:37.844Z,100412.08
2019-02-11T16:09:43.249Z,100413.81
2019-02-11T16:15:37.622Z,100439.11
2019-02-11T16:18:23.186Z,100447.11
2019-02-11T16:21:13.370Z,100447.11
2019-02-11T16:27:13.984Z,100459.16
2019-02-11T16:29:47.194Z,100468.56
2019-02-11T16:32:36.850Z,100461.17
2019-02-11T16:35:28.129Z,100459.59
2019-02-11T16:38:37.789Z,100463.48
2019-02-11T16:44:21.329Z,100478.88
2019-02-11T16:47:12.449Z,100486.25
2019-02-11T16:49:59.074Z,100492.52
2019-02-11T16:52:30.161Z,100501.89
2019-02-11T16:55:01.189Z,100522.02
2019-02-11T17:00:41.347Z,100518.72
2019-02-11T17:03:53.029Z,100544.70
2019-02-11T17:07:04.075Z,100536.39
2019-02-11T17:09:55.006Z,100549.73
2019-02-11T17:13:18.552Z,100561.38
2019-02-11T17:15:50.228Z,100561.63
2019-02-11T17:18:22.132Z,100565.99
2019-02-11T17:21:31.386Z,100578.64
2019-02-11T17:27:14.390Z,100588.81
2019-02-11T17:30:27.177Z,100604.73
2019-02-11T17:33:20.436Z,100594.88
2019-02-11T17:35:51.418Z,100634.02
2019-02-11T17:39:01.488Z,100644.58
2019-02-11T17:41:33.281Z,100644.58
2019-02-11T17:44:43.261Z,100650.55
2019-02-11T17:50:35.409Z,100665.38
2019-02-11T17:53:13.858Z,100678.17
2019-02-11T17:56:52.471Z,100699.22
2019-02-11T17:59:02.484Z,100699.91
2019-02-11T18:02:15.204Z,100695.61
2019-02-11T18:07:37.849Z,100694.27
2019-02-11T18:10:35.202Z,100702.66
2019-02-11T18:13:27.607Z,100706.19
2019-02-11T18:15:59.443Z,100715.88
2019-02-11T18:18:50.255Z,100722.67
2019-02-11T18:21:39.388Z,100722.67
2019-02-11T18:24:30.489Z,100730.71
2019-02-11T18:27:41.881Z,100748.86
2019-02-11T18:30:36.021Z,100749.55
2019-02-11T18:33:10.279Z,100739.69
2019-02-11T18:39:03.008Z,100737.61
2019-02-11T18:48:10.264Z,100746.17
2019-02-11T18:50:50.941Z,100765.09
2019-02-11T19:02:45.617Z,100779.39
2019-02-11T19:11:43.164Z,100797.84
2019-02-11T19:14:33.061Z,100804.95
2019-02-11T19:17:22.149Z,100817.70
2019-02-11T19:19:53.171Z,100829.00
2019-02-11T19:22:25.251Z,100836.16
2019-02-11T19:25:15.201Z,100840.14
2019-02-11T19:28:07.318Z,100835.80
2019-02-11T19:34:38.391Z,100837.56
2019-02-11T19:39:48.135Z,100835.98
2019-02-11T19:42:56.239Z,100834.14
2019-02-11T19:45:46.257Z,100842.41
2019-02-11T19:48:30.518Z,100840.84
2019-02-11T19:51:21.352Z,100842.12
2019-02-11T19:54:11.359Z,100850.66
2019-02-11T19:59:44.260Z,100854.50
2019-02-11T20:02:15.357Z,100861.06
2019-02-11T20:05:06.234Z,100877.09
2019-02-11T20:07:43.018Z,100877.09
2019-02-11T20:10:33.155Z,100884.27
2019-02-11T20:13:06.121Z,100891.77
2019-02-11T20:15:41.190Z,100885.81
2019-02-11T20:21:41.761Z,100893.97
2019-02-11T20:24:22.635Z,100896.42
2019-02-11T20:26:53.187Z,100888.37
2019-02-11T20:29:24.765Z,100878.02
2019-02-11T20:35:20.834Z,100891.78
2019-02-11T20:44:31.870Z,100883.89
2019-02-11T20:49:47.247Z,100881.19
2019-02-11T20:52:37.023Z,100889.22
2019-02-11T20:55:50.619Z,100897.19
2019-02-11T20:58:41.554Z,100900.66
2019-02-11T21:01:19.580Z,100898.45
2019-02-11T21:09:53.877Z,100893.32
2019-02-11T21:12:45.706Z,100879.22
2019-02-11T21:15:38.081Z,100909.27
2019-02-11T21:20:39.471Z,100908.80
2019-02-11T21:26:43.700Z,100933.03
2019-02-11T21:29:16.188Z,100934.67
2019-02-11T21:34:51.999Z,100934.02
2019-02-11T21:40:24.574Z,100972.40
2019-02-11T21:43:14.845Z,101000.02
2019-02-11T21:46:07.314Z,101000.02
2019-02-11T21:51:40.929Z,101014.23
2019-02-11T21:57:44.974Z,101032.28
2019-02-11T22:00:35.320Z,101035.23
2019-02-11T22:03:24.375Z,101040.30
2019-02-11T22:06:15.606Z,101036.31
2019-02-11T22:12:06.236Z,101040.05
2019-02-11T22:14:37.165Z,101047.17
2019-02-11T22:17:27.158Z,101049.47
2019-02-11T22:20:17.084Z,101033.66
2019-02-11T22:25:57.648Z,101042.36
2019-02-11T22:31:22.780Z,101052.84
2019-02-11T22:33:55.049Z,101048.99
2019-02-11T22:36:26.838Z,101048.88
2019-02-11T22:38:58.626Z,101046.70
2019-02-11T22:41:31.169Z,101039.72
2019-02-11T22:44:05.289Z,101042.09
2019-02-11T22:46:56.019Z,101048.88
2019-02-11T22:49:30.800Z,101052.38
2019-02-11T22:52:42.758Z,101062.86
2019-02-11T22:58:26.387Z,101079.23
2019-02-11T23:01:17.322Z,101077.20
2019-02-11T23:04:27.107Z,101082.73
2019-02-11T23:07:01.435Z,101097.14
2019-02-11T23:09:32.335Z,101104.98
2019-02-11T23:12:22.415Z,101118.72
2019-02-11T23:18:18.594Z,101143.90
2019-02-11T23:20:52.186Z,101143.24
2019-02-11T23:23:20.736Z,101135.73
2019-02-11T23:28:42.322Z,101144.84
2019-02-11T23:34:37.779Z,101153.55
2019-02-11T23:44:04.436Z,101168.34
2019-02-11T23:47:06.534Z,101163.63
2019-02-11T23:50:08.482Z,101162.55
2019-02-11T23:52:39.297Z,101165.05
2019-02-11T23:58:29.741Z,101172.91
